Terminal Aerodrome Forecast
Issued by NWS

Home | Current Version | Previous Version | Text Only | Print | Product List | Glossary On
Versions: 1 2 3 4 5 6 7 8 9 10 11 12 13 14 15 16 17 18 19 20
318
FTUS43 KIND 292320
TAFBMG
TAF
KBMG 292320Z 3000/3024 VRB06KT P6SM OVC250
     FM300400 06005KT P6SM OVC100
     FM300700 09007KT P6SM VCSH OVC050
     FM301200 10010KT 4SM -RA BR OVC015
     FM301600 11013G20KT 3SM -RA VCTS OVC007CB
      AMD LTD TO CLD VIS AND WIND 3001/3013=

USA.gov is the U.S. government's official web portal to all federal, state and local government web resources and services.